createdAt,value
2019-02-12T00:02:21.092Z,98796.58
2019-02-12T00:04:50.708Z,98808.23
2019-02-12T00:07:20.719Z,98800.91
2019-02-12T00:09:50.120Z,98802.42
2019-02-12T00:12:20.109Z,98815.42
2019-02-12T00:14:49.716Z,98815.42
2019-02-12T00:17:21.029Z,98820.73
2019-02-12T00:19:50.680Z,98835.45
2019-02-12T00:22:20.109Z,98835.45
2019-02-12T00:24:49.693Z,98833.92
2019-02-12T00:27:19.326Z,98833.92
2019-02-12T00:29:50.682Z,98837.67
2019-02-12T00:32:20.070Z,98835.66
2019-02-12T00:34:49.524Z,98830.53
2019-02-12T00:37:20.364Z,98845.95
2019-02-12T00:39:50.192Z,98845.95
2019-02-12T00:42:21.731Z,98845.03
2019-02-12T00:44:52.644Z,98850.23
2019-02-12T00:47:22.425Z,98844.78
2019-02-12T00:49:52.412Z,98857.92
2019-02-12T00:52:23.884Z,98857.64
2019-02-12T00:54:59.697Z,98857.52
2019-02-12T00:57:30.266Z,98857.27
2019-02-12T01:00:04.805Z,98860.72
2019-02-12T01:02:34.488Z,98860.72
2019-02-12T01:05:07.494Z,98860.73
2019-02-12T01:07:37.102Z,98869.64
2019-02-12T01:10:07.975Z,98861.14
2019-02-12T01:12:39.405Z,98857.47
2019-02-12T01:15:12.206Z,98854.38
2019-02-12T01:17:44.877Z,98855.41
2019-02-12T01:20:14.719Z,98860.08
2019-02-12T01:22:44.245Z,98859.54
2019-02-12T01:25:14.113Z,98863.09
2019-02-12T01:27:46.144Z,98862.34
2019-02-12T01:30:19.412Z,98866.09
2019-02-12T01:32:49.224Z,98866.09
2019-02-12T01:35:19.093Z,98865.98
2019-02-12T01:37:50.396Z,98868.05
2019-02-12T01:40:22.180Z,98860.60
2019-02-12T01:42:51.797Z,98860.60
2019-02-12T01:45:21.201Z,98864.57
2019-02-12T01:47:50.772Z,98864.57
2019-02-12T01:50:20.252Z,98868.21
2019-02-12T01:52:49.679Z,98865.44
2019-02-12T01:55:19.618Z,98870.61
2019-02-12T01:57:50.763Z,98870.61
2019-02-12T02:00:20.369Z,98873.16
2019-02-12T02:02:49.973Z,98873.16
2019-02-12T02:05:19.992Z,98867.58
2019-02-12T02:07:51.746Z,98871.14
2019-02-12T02:10:21.297Z,98871.14
2019-02-12T02:12:50.823Z,98877.02
2019-02-12T02:15:22.095Z,98877.02
2019-02-12T02:17:51.604Z,98874.35
2019-02-12T02:20:21.102Z,98878.36
2019-02-12T02:22:53.480Z,98869.72
2019-02-12T02:25:22.889Z,98869.72
2019-02-12T02:27:53.737Z,98866.98
2019-02-12T02:30:24.960Z,98866.98
2019-02-12T02:32:54.575Z,98861.02
2019-02-12T02:35:24.103Z,98870.59
2019-02-12T02:37:54.710Z,98861.42
2019-02-12T02:40:24.204Z,98861.42
2019-02-12T02:42:55.339Z,98869.97
2019-02-12T02:45:24.749Z,98877.90
2019-02-12T02:47:54.275Z,98879.38
2019-02-12T02:50:24.235Z,98879.75
2019-02-12T02:52:54.282Z,98879.05
2019-02-12T02:55:23.843Z,98871.80
2019-02-12T02:57:53.781Z,98876.98
2019-02-12T03:00:23.356Z,98890.02
2019-02-12T03:02:53.007Z,98893.48
2019-02-12T03:05:22.818Z,98891.34
2019-02-12T03:07:52.987Z,98891.34
2019-02-12T03:10:23.932Z,98896.73
2019-02-12T03:12:53.533Z,98896.73
2019-02-12T03:15:23.066Z,98892.02
2019-02-12T03:17:52.530Z,98904.02
2019-02-12T03:20:22.322Z,98896.69
2019-02-12T03:22:52.093Z,98902.27
2019-02-12T03:25:21.569Z,98900.20
2019-02-12T03:27:51.432Z,98900.20
2019-02-12T03:30:22.508Z,98903.39
2019-02-12T03:32:52.181Z,98921.05
2019-02-12T03:35:24.180Z,98917.70
2019-02-12T03:37:53.788Z,98920.50
2019-02-12T03:40:25.257Z,98920.50
2019-02-12T03:43:00.740Z,98925.34
2019-02-12T03:45:26.157Z,98928.23
2019-02-12T03:47:58.109Z,98931.13
2019-02-12T03:50:27.865Z,98925.97
2019-02-12T03:52:57.600Z,98925.97
2019-02-12T03:55:27.183Z,98925.00
2019-02-12T03:57:56.682Z,98922.28
2019-02-12T04:00:26.344Z,98922.28
2019-02-12T04:03:06.049Z,98928.59
2019-02-12T04:05:36.466Z,98924.05
2019-02-12T04:08:06.366Z,98937.11
2019-02-12T04:10:35.974Z,98935.83
2019-02-12T04:13:05.598Z,98933.52
2019-02-12T04:15:36.266Z,98943.49
2019-02-12T04:18:08.712Z,98932.47
2019-02-12T04:20:38.172Z,98934.92
2019-02-12T04:23:07.785Z,98939.75
2019-02-12T04:25:38.443Z,98939.75
2019-02-12T04:28:08.018Z,98923.39
2019-02-12T04:30:37.608Z,98923.39
2019-02-12T04:33:10.282Z,98928.68
2019-02-12T04:35:41.155Z,98919.58
2019-02-12T04:38:11.569Z,98916.56
2019-02-12T04:40:41.164Z,98916.56
2019-02-12T04:43:10.806Z,98919.36
2019-02-12T04:45:40.590Z,98921.98
2019-02-12T04:48:10.106Z,98921.98
2019-02-12T04:50:39.698Z,98924.17
2019-02-12T04:53:12.577Z,98918.39
2019-02-12T04:55:42.093Z,98919.66
2019-02-12T04:58:14.556Z,98915.91
2019-02-12T05:00:46.013Z,98919.90
2019-02-12T05:03:16.549Z,98919.90
2019-02-12T05:06:16.974Z,98925.70
2019-02-12T05:09:33.192Z,98935.30
2019-02-12T05:12:05.146Z,98935.30
2019-02-12T05:14:34.523Z,98938.59
2019-02-12T05:17:06.191Z,98938.91
2019-02-12T05:19:35.677Z,98937.00
2019-02-12T05:22:05.215Z,98942.50
2019-02-12T05:24:36.802Z,98942.50
2019-02-12T05:27:06.648Z,98939.63
2019-02-12T05:29:38.200Z,98941.72
2019-02-12T05:32:07.950Z,98941.19
2019-02-12T05:34:39.471Z,98936.13
2019-02-12T05:37:09.280Z,98932.89
2019-02-12T05:39:44.423Z,98932.89
2019-02-12T05:42:15.004Z,98941.16
2019-02-12T05:44:45.032Z,98946.78
2019-02-12T05:47:14.879Z,98946.78
2019-02-12T05:49:44.598Z,98944.25
2019-02-12T05:52:14.635Z,98944.63
2019-02-12T05:54:44.259Z,98938.40
2019-02-12T05:57:13.804Z,98938.40
2019-02-12T05:59:43.712Z,98936.66
2019-02-12T06:02:13.274Z,98943.04
2019-02-12T06:04:43.709Z,98938.48
2019-02-12T06:07:16.537Z,98939.19
2019-02-12T06:09:46.280Z,98946.10
2019-02-12T06:12:17.016Z,98946.10
2019-02-12T06:14:46.552Z,98941.72
2019-02-12T06:17:18.237Z,98932.85
2019-02-12T06:19:48.211Z,98936.81
2019-02-12T06:22:20.702Z,98947.88
2019-02-12T06:24:50.121Z,98942.86
2019-02-12T06:27:22.209Z,98943.27
2019-02-12T06:29:51.985Z,98949.81
2019-02-12T06:32:21.721Z,98959.43
2019-02-12T06:34:51.326Z,98957.09
2019-02-12T06:37:21.970Z,98957.09
2019-02-12T06:39:51.619Z,98960.45
2019-02-12T06:42:21.529Z,98967.13
2019-02-12T06:44:52.456Z,98971.36
2019-02-12T06:47:24.770Z,98975.31
2019-02-12T06:49:55.526Z,98975.31
2019-02-12T06:52:25.293Z,98980.37
2019-02-12T06:54:54.710Z,98988.27
2019-02-12T06:57:27.789Z,98988.27
2019-02-12T06:59:57.294Z,98986.11
2019-02-12T07:03:10.846Z,99000.47
2019-02-12T07:05:46.279Z,99000.47
2019-02-12T07:08:46.295Z,99005.63
2019-02-12T07:11:36.127Z,99001.56
2019-02-12T07:14:52.780Z,99000.47
2019-02-12T07:17:59.743Z,98998.38
2019-02-12T07:20:55.035Z,99004.52
2019-02-12T07:24:07.247Z,99016.48
2019-02-12T07:26:54.948Z,99024.25
2019-02-12T07:29:50.478Z,99022.67
2019-02-12T07:33:13.198Z,99036.91
2019-02-12T07:36:05.735Z,99040.87
2019-02-12T07:38:57.385Z,99040.19
2019-02-12T07:41:51.352Z,99041.67
2019-02-12T07:44:36.974Z,99041.67
2019-02-12T07:47:54.489Z,99058.28
2019-02-12T07:51:01.335Z,99058.28
2019-02-12T07:54:09.122Z,99068.41
2019-02-12T07:57:18.500Z,99068.41
2019-02-12T07:59:59.020Z,99074.11
2019-02-12T08:02:53.291Z,99081.56
2019-02-12T08:05:58.867Z,99084.66
2019-02-12T08:09:02.446Z,99086.84
2019-02-12T08:12:28.538Z,99093.75
2019-02-12T08:15:36.793Z,99101.02
2019-02-12T08:18:37.876Z,99096.67
2019-02-12T08:21:33.954Z,99102.78
2019-02-12T08:24:28.153Z,99104.91
2019-02-12T08:27:51.450Z,99106.84
2019-02-12T08:30:53.552Z,99106.84
2019-02-12T08:33:44.388Z,99108.01
2019-02-12T08:36:43.283Z,99108.01
2019-02-12T08:39:55.530Z,99110.39
2019-02-12T08:42:56.086Z,99111.26
2019-02-12T08:45:51.236Z,99121.20
2019-02-12T08:48:50.247Z,99121.20
2019-02-12T08:52:12.800Z,99124.41
2019-02-12T08:55:39.178Z,99124.41
2019-02-12T08:58:48.677Z,99126.07
2019-02-12T09:01:43.360Z,99126.64
2019-02-12T09:04:30.032Z,99126.64
2019-02-12T09:07:29.681Z,99128.88
2019-02-12T09:10:42.766Z,99127.52
2019-02-12T09:13:45.964Z,99134.52
2019-02-12T09:16:55.804Z,99134.81
2019-02-12T09:19:34.421Z,99134.81
2019-02-12T09:22:43.057Z,99145.53
2019-02-12T09:25:50.736Z,99134.97
2019-02-12T09:28:48.973Z,99152.11
2019-02-12T09:32:00.304Z,99150.04
2019-02-12T09:34:54.583Z,99150.04
2019-02-12T09:37:55.241Z,99157.86
2019-02-12T09:41:07.738Z,99151.73
2019-02-12T09:44:19.156Z,99151.19
2019-02-12T09:47:27.832Z,99153.22
2019-02-12T09:50:34.404Z,99153.22
2019-02-12T09:53:49.678Z,99149.16
2019-02-12T09:57:20.232Z,99157.97
2019-02-12T10:00:37.234Z,99159.70
2019-02-12T10:03:48.986Z,99159.70
2019-02-12T10:06:49.255Z,99164.91
2019-02-12T10:10:08.850Z,99164.91
2019-02-12T10:13:02.663Z,99165.12
2019-02-12T10:15:59.445Z,99159.70
2019-02-12T10:19:10.345Z,99163.21
2019-02-12T10:22:29.975Z,99157.44
2019-02-12T10:25:18.568Z,99159.27
2019-02-12T10:28:24.686Z,99155.27
2019-02-12T10:31:07.875Z,99168.73
2019-02-12T10:33:37.337Z,99169.91
2019-02-12T10:36:07.981Z,99169.91
2019-02-12T10:38:37.616Z,99176.99
2019-02-12T10:41:07.074Z,99173.40
2019-02-12T10:43:36.637Z,99173.40
2019-02-12T10:46:06.598Z,99170.92
2019-02-12T10:48:36.082Z,99170.03
2019-02-12T10:51:05.577Z,99171.68
2019-02-12T10:53:35.454Z,99166.23
2019-02-12T10:56:05.648Z,99166.23
2019-02-12T10:58:36.129Z,99168.49
2019-02-12T11:01:05.741Z,99168.36
2019-02-12T11:03:35.427Z,99165.44
2019-02-12T11:06:09.184Z,99159.77
2019-02-12T11:08:39.059Z,99156.70
2019-02-12T11:11:08.729Z,99153.89
2019-02-12T11:13:38.279Z,99155.29
2019-02-12T11:16:07.807Z,99155.29
2019-02-12T11:18:38.602Z,99150.98
2019-02-12T11:21:12.334Z,99150.98
2019-02-12T11:23:44.158Z,99162.53
2019-02-12T11:26:14.755Z,99161.41
2019-02-12T11:28:44.814Z,99163.77
2019-02-12T11:31:14.880Z,99163.77
2019-02-12T11:33:45.535Z,99163.81
2019-02-12T11:36:18.120Z,99166.16
2019-02-12T11:38:47.577Z,99164.81
2019-02-12T11:41:18.208Z,99164.81
2019-02-12T11:43:48.062Z,99165.45
2019-02-12T11:46:21.103Z,99168.52
2019-02-12T11:48:50.916Z,99168.52
2019-02-12T11:51:23.804Z,99160.59
2019-02-12T11:53:54.003Z,99160.59
2019-02-12T11:56:23.479Z,99162.84
2019-02-12T11:58:52.922Z,99157.00
2019-02-12T12:01:27.472Z,99157.00
2019-02-12T12:03:56.945Z,99155.80
2019-02-12T12:06:26.852Z,99161.81
2019-02-12T12:08:56.366Z,99162.69
2019-02-12T12:11:26.001Z,99162.69
2019-02-12T12:13:55.739Z,99154.35
2019-02-12T12:16:25.222Z,99159.00
2019-02-12T12:18:55.009Z,99158.19
2019-02-12T12:21:24.429Z,99157.63
2019-02-12T12:23:53.971Z,99157.63
2019-02-12T12:26:23.626Z,99158.91
2019-02-12T12:28:56.222Z,99153.23
2019-02-12T12:31:25.729Z,99153.23
2019-02-12T12:33:55.178Z,99154.91
2019-02-12T12:36:26.899Z,99155.95
2019-02-12T12:38:56.269Z,99158.19
2019-02-12T12:41:28.112Z,99156.38
2019-02-12T12:43:57.924Z,99151.27
2019-02-12T12:46:27.847Z,99147.95
2019-02-12T12:48:59.239Z,99155.52
2019-02-12T12:51:28.776Z,99152.19
2019-02-12T12:53:58.394Z,99152.19
2019-02-12T12:56:28.289Z,99151.95
2019-02-12T12:58:57.847Z,99150.95
2019-02-12T13:01:29.944Z,99146.72
2019-02-12T13:03:59.411Z,99141.45
2019-02-12T13:06:31.496Z,99148.82
2019-02-12T13:09:01.282Z,99145.16
2019-02-12T13:11:30.756Z,99145.16
2019-02-12T13:14:01.914Z,99151.22
2019-02-12T13:16:31.266Z,99149.31
2019-02-12T13:19:01.098Z,99153.81
2019-02-12T13:21:31.313Z,99153.81
2019-02-12T13:24:00.764Z,99162.59
2019-02-12T13:26:30.281Z,99152.64
2019-02-12T13:28:59.658Z,99155.30
2019-02-12T13:31:31.096Z,99154.64
2019-02-12T13:34:01.174Z,99152.48
2019-02-12T13:36:30.771Z,99152.48
2019-02-12T13:39:01.149Z,99147.98
2019-02-12T13:41:31.098Z,99147.98
2019-02-12T13:44:00.547Z,99154.92
2019-02-12T13:46:30.158Z,99154.92
2019-02-12T13:48:59.913Z,99159.41
2019-02-12T13:51:29.278Z,99159.41
2019-02-12T13:53:58.903Z,99164.09
2019-02-12T13:56:28.768Z,99164.09
2019-02-12T13:58:58.688Z,99173.57
2019-02-12T14:01:30.915Z,99162.13
2019-02-12T14:04:12.836Z,99162.14
2019-02-12T14:06:33.247Z,99166.09
2019-02-12T14:09:05.119Z,99162.50
2019-02-12T14:11:34.476Z,99161.73
2019-02-12T14:14:03.822Z,99171.89
2019-02-12T14:16:39.538Z,99167.79
2019-02-12T14:19:15.904Z,99167.75
2019-02-12T14:21:45.700Z,99162.68
2019-02-12T14:24:18.824Z,99163.59
2019-02-12T14:26:50.338Z,99168.18
2019-02-12T14:29:25.990Z,99163.22
2019-02-12T14:31:55.320Z,99163.22
2019-02-12T14:34:24.935Z,99163.63
2019-02-12T14:39:15.547Z,99168.00
2019-02-12T14:41:54.206Z,99168.00
2019-02-12T14:44:34.796Z,99170.27
2019-02-12T14:47:10.121Z,99170.27
2019-02-12T14:49:41.309Z,99176.29
2019-02-12T14:52:10.660Z,99177.87
2019-02-12T14:54:41.698Z,99186.11
2019-02-12T14:57:11.741Z,99186.11
2019-02-12T14:59:41.306Z,99182.53
2019-02-12T15:02:12.784Z,99182.53
2019-02-12T15:04:42.244Z,99182.40
2019-02-12T15:07:19.959Z,99173.77
2019-02-12T15:09:49.444Z,99160.84
2019-02-12T15:12:24.866Z,99160.84
2019-02-12T15:14:54.397Z,99165.73
2019-02-12T15:17:23.996Z,99172.84
2019-02-12T15:19:53.547Z,99181.89
2019-02-12T15:22:23.402Z,99181.86
2019-02-12T15:24:52.760Z,99177.66
2019-02-12T15:27:22.203Z,99170.08
2019-02-12T15:29:52.007Z,99170.08
2019-02-12T15:32:24.757Z,99172.55
2019-02-12T15:34:54.309Z,99172.55
2019-02-12T15:37:26.146Z,99178.27
2019-02-12T15:39:56.957Z,99179.72
2019-02-12T15:42:29.312Z,99180.86
2019-02-12T15:44:59.142Z,99180.86
2019-02-12T15:47:28.547Z,99190.74
2019-02-12T15:49:58.135Z,99185.63
2019-02-12T15:52:28.042Z,99179.39
2019-02-12T15:55:05.125Z,99176.17
2019-02-12T15:57:40.601Z,99177.66
2019-02-12T16:00:15.486Z,99179.71
2019-02-12T16:02:45.221Z,99184.56
2019-02-12T16:05:15.244Z,99186.25
2019-02-12T16:07:47.258Z,99183.02
2019-02-12T16:10:19.367Z,99183.02
2019-02-12T16:12:51.056Z,99173.05
2019-02-12T16:15:24.409Z,99176.84
2019-02-12T16:17:54.828Z,99175.30
2019-02-12T16:20:24.745Z,99175.30
2019-02-12T16:22:56.587Z,99173.62
2019-02-12T16:25:35.097Z,99177.39
2019-02-12T16:28:05.152Z,99177.39
2019-02-12T16:30:34.739Z,99181.20
2019-02-12T16:33:04.284Z,99181.20
2019-02-12T16:35:34.905Z,99189.73
2019-02-12T16:38:06.108Z,99184.16
2019-02-12T16:40:38.061Z,99184.58
2019-02-12T16:43:08.859Z,99186.69
2019-02-12T16:45:59.718Z,99198.97
2019-02-12T16:48:32.117Z,99198.97
2019-02-12T16:51:03.932Z,99205.14
2019-02-12T16:53:33.440Z,99208.70
2019-02-12T16:56:08.259Z,99216.10
2019-02-12T16:58:42.346Z,99211.50
2019-02-12T17:01:11.993Z,99211.50
2019-02-12T17:03:41.687Z,99231.95
2019-02-12T17:06:12.062Z,99230.49
2019-02-12T17:08:42.647Z,99231.23
2019-02-12T17:11:13.299Z,99234.25
2019-02-12T17:13:42.817Z,99234.25
2019-02-12T17:16:12.410Z,99239.09
2019-02-12T17:18:44.457Z,99240.09
2019-02-12T17:21:15.735Z,99239.13
2019-02-12T17:23:46.803Z,99239.13
2019-02-12T17:26:20.595Z,99242.11
2019-02-12T17:28:50.691Z,99242.11
2019-02-12T17:31:22.904Z,99251.52
2019-02-12T17:33:52.821Z,99251.52
2019-02-12T17:36:23.229Z,99253.22
2019-02-12T17:38:53.321Z,99258.44
2019-02-12T17:41:27.516Z,99252.10
2019-02-12T17:43:57.569Z,99245.77
2019-02-12T17:46:27.079Z,99260.63
2019-02-12T17:48:57.555Z,99264.81
2019-02-12T17:51:28.098Z,99267.17
2019-02-12T17:53:58.065Z,99260.51
2019-02-12T17:56:27.657Z,99265.97
2019-02-12T17:59:00.605Z,99264.77
2019-02-12T18:01:30.155Z,99264.89
2019-02-12T18:04:02.104Z,99271.32
2019-02-12T18:06:32.086Z,99271.61
2019-02-12T18:09:01.517Z,99271.61
2019-02-12T18:11:34.151Z,99273.56
2019-02-12T18:14:03.758Z,99271.31
2019-02-12T18:16:35.901Z,99272.94
2019-02-12T18:19:08.325Z,99275.59
2019-02-12T18:21:37.645Z,99278.41
2019-02-12T18:24:10.618Z,99273.38
2019-02-12T18:26:40.121Z,99274.30
2019-02-12T18:29:12.900Z,99274.30
2019-02-12T18:31:42.394Z,99276.03
2019-02-12T18:34:13.080Z,99274.82
2019-02-12T18:36:42.521Z,99271.23
2019-02-12T18:39:12.137Z,99271.23
2019-02-12T18:41:43.258Z,99256.65
2019-02-12T18:44:14.222Z,99256.65
2019-02-12T18:46:43.941Z,99258.19
2019-02-12T18:49:13.637Z,99257.28
2019-02-12T18:51:44.842Z,99262.15
2019-02-12T18:54:14.747Z,99262.15
2019-02-12T18:56:45.137Z,99262.36
2019-02-12T18:59:15.016Z,99260.75
2019-02-12T19:01:44.501Z,99256.65
2019-02-12T19:04:21.130Z,99261.84
2019-02-12T19:06:50.746Z,99247.77
2019-02-12T19:09:20.348Z,99249.92
2019-02-12T19:11:54.391Z,99258.53
2019-02-12T19:14:21.098Z,99260.78
2019-02-12T19:16:52.333Z,99260.78
2019-02-12T19:19:21.854Z,99265.43
2019-02-12T19:21:52.287Z,99261.59
2019-02-12T19:24:22.646Z,99254.45
2019-02-12T19:26:55.269Z,99254.27
2019-02-12T19:29:28.057Z,99254.27
2019-02-12T19:32:00.741Z,99257.57
2019-02-12T19:34:30.515Z,99257.57
2019-02-12T19:37:00.560Z,99246.86
2019-02-12T19:39:36.224Z,99257.99
2019-02-12T19:42:05.923Z,99262.88
2019-02-12T19:44:35.361Z,99264.23
2019-02-12T19:47:13.038Z,99266.23
2019-02-12T19:49:45.239Z,99251.53
2019-02-12T19:52:18.248Z,99251.53
2019-02-12T19:54:54.756Z,99256.00
2019-02-12T19:57:25.177Z,99268.52
2019-02-12T19:59:55.526Z,99259.52
2019-02-12T20:02:25.283Z,99259.52
2019-02-12T20:04:55.776Z,99267.06
2019-02-12T20:07:25.575Z,99264.50
2019-02-12T20:09:55.049Z,99277.28
2019-02-12T20:12:24.529Z,99280.27
2019-02-12T20:14:54.286Z,99280.27
2019-02-12T20:17:23.998Z,99290.69
2019-02-12T20:19:53.484Z,99286.66
2019-02-12T20:22:23.335Z,99285.61
2019-02-12T20:24:53.247Z,99275.83
2019-02-12T20:27:23.201Z,99275.83
2019-02-12T20:29:53.886Z,99280.97
2019-02-12T20:32:23.353Z,99278.61
2019-02-12T20:34:52.744Z,99282.50
2019-02-12T20:37:22.491Z,99292.53
2019-02-12T20:39:52.265Z,99299.24
2019-02-12T20:42:24.693Z,99284.30
2019-02-12T20:44:55.522Z,99284.13
2019-02-12T20:47:25.299Z,99278.08
2019-02-12T20:49:56.676Z,99268.75
2019-02-12T20:52:29.728Z,99263.86
2019-02-12T20:54:59.561Z,99263.86
2019-02-12T20:57:29.095Z,99263.20
2019-02-12T21:00:04.085Z,99256.48
2019-02-12T21:02:36.728Z,99260.85
2019-02-12T21:05:09.650Z,99264.83
2019-02-12T21:07:45.127Z,99265.06
2019-02-12T21:10:17.122Z,99263.59
2019-02-12T21:12:53.735Z,99266.84
2019-02-12T21:15:39.624Z,99274.83
2019-02-12T21:18:23.386Z,99276.30
2019-02-12T21:20:54.617Z,99276.30
2019-02-12T21:23:41.167Z,99272.86
2019-02-12T21:26:28.685Z,99282.20
2019-02-12T21:28:59.198Z,99282.20
2019-02-12T21:31:33.869Z,99297.64
2019-02-12T21:34:13.129Z,99293.08
2019-02-12T21:36:46.478Z,99292.63
2019-02-12T21:39:20.721Z,99292.63
2019-02-12T21:41:57.216Z,99290.67
2019-02-12T21:44:39.421Z,99300.54
2019-02-12T21:47:14.163Z,99296.39
2019-02-12T21:49:48.328Z,99302.13
2019-02-12T21:52:20.492Z,99291.78
2019-02-12T21:55:01.498Z,99299.94
2019-02-12T21:57:43.299Z,99295.70
2019-02-12T22:00:17.716Z,99294.59
2019-02-12T22:02:51.834Z,99294.59
2019-02-12T22:05:24.041Z,99297.02
2019-02-12T22:11:09.886Z,99328.52
2019-02-12T22:13:41.789Z,99337.29
2019-02-12T22:16:11.348Z,99333.22
2019-02-12T22:18:43.081Z,99329.77
2019-02-12T22:21:15.022Z,99329.84
2019-02-12T22:23:45.581Z,99329.84
2019-02-12T22:26:21.966Z,99326.81
2019-02-12T22:28:56.479Z,99326.81
2019-02-12T22:31:27.012Z,99331.89
2019-02-12T22:34:00.414Z,99328.52
2019-02-12T22:36:32.525Z,99336.88
2019-02-12T22:39:05.823Z,99336.88
2019-02-12T22:41:37.925Z,99335.27
2019-02-12T22:44:08.110Z,99326.49
2019-02-12T22:46:42.455Z,99326.49
2019-02-12T22:49:22.687Z,99341.22
2019-02-12T22:51:55.492Z,99341.22
2019-02-12T22:54:26.736Z,99346.34
2019-02-12T22:56:59.756Z,99340.25
2019-02-12T22:59:31.527Z,99341.98
2019-02-12T23:02:06.288Z,99347.49
2019-02-12T23:04:36.642Z,99362.64
2019-02-12T23:07:09.434Z,99356.03
2019-02-12T23:09:43.788Z,99347.53
2019-02-12T23:12:14.156Z,99347.53
2019-02-12T23:14:46.535Z,99359.72
2019-02-12T23:17:17.267Z,99359.72
2019-02-12T23:19:47.232Z,99350.25
2019-02-12T23:22:23.055Z,99356.89
2019-02-12T23:24:52.538Z,99345.67
2019-02-12T23:27:24.585Z,99332.33
2019-02-12T23:29:55.791Z,99328.97
2019-02-12T23:32:27.102Z,99328.97
2019-02-12T23:34:57.484Z,99331.88
2019-02-12T23:37:31.338Z,99331.66
2019-02-12T23:40:03.983Z,99339.67
2019-02-12T23:42:40.737Z,99344.71
2019-02-12T23:45:13.235Z,99346.53
2019-02-12T23:47:44.626Z,99352.12
2019-02-12T23:50:17.148Z,99352.12
2019-02-12T23:52:47.275Z,99356.89
2019-02-12T23:55:17.343Z,99352.80
2019-02-12T23:57:47.398Z,99361.77
